Terminal Aerodrome Forecast
Issued by NWS

Home | Current Version | Previous Version | Text Only | Print | Product List | Glossary On
Versions: 1 2 3 4 5 6 7 8 9 10 11 12 13 14 15
000
FTUS41 KPHI 240816 AAA
TAFMIV
TAF AMD
KMIV 240816Z 2408/2506 19004KT P6SM SCT250
      TEMPO 2410/2414 4SM BR SCT015
     FM241600 18008KT P6SM SCT045
     FM242200 15006KT P6SM SCT045=

USA.gov is the U.S. government's official web portal to all federal, state and local government web resources and services.